This is the latest recevied weather packets stored in our database for station/object Riedlingn. If no packets are shown the sender has not sent any weather packets the latest 10 day(s).
| Time | Temp. | Humidity | Pressure | Rain* | Wind** | Luminosity | Snow |
|---|---|---|---|---|---|---|---|
| 1787929330 | 19.44° C | 90% | 1017.6 hPa | 18.54 mm | - | - | - |
| 1787927530 | 18.89° C | 91% | 1017.7 hPa | 18.54 mm | - | - | - |
| 1787925730 | 18.89° C | 92% | 1017.5 hPa | 18.54 mm | - | - | - |
| 1787923930 | 18.89° C | 90% | 1018.1 hPa | 18.03 mm | - | - | - |
| 1787922130 | 19.44° C | 88% | 1018 hPa | 18.03 mm | - | - | - |
| 1787920330 | 20° C | 89% | 1017.5 hPa | 18.03 mm | - | - | - |
| 1787918530 | 20° C | 89% | 1018.4 hPa | 17.78 mm | - | - | - |
| 1787916730 | 20° C | 87% | 1017.5 hPa | 17.78 mm | - | - | - |
| 1787914930 | 20.56° C | 85% | 1016.5 hPa | 17.78 mm | - | - | - |
| 1787913130 | 21.11° C | 88% | 1016.3 hPa | 17.53 mm | - | - | - |
| 1787911331 | 18.89° C | 91% | 1016.2 hPa | 17.53 mm | - | - | - |
| 1787909530 | 17.78° C | 91% | 1016.7 hPa | 17.53 mm | - | - | - |
| 1787907730 | 22.22° C | 82% | 1018.3 hPa | 0 mm | - | - | - |
| 1787905930 | 23.33° C | 77% | 1013.3 hPa | 0 mm | - | - | - |
| 1787904130 | 23.33° C | 74% | 1012.5 hPa | 0 mm | - | - | - |
| 1787902333 | 23.33° C | 75% | 1013.6 hPa | 0 mm | - | - | - |
| 1787900529 | 22.22° C | 80% | 1014.1 hPa | 0 mm | - | - | - |
| 1787898729 | 20.56° C | 86% | 1014.5 hPa | 0 mm | - | - | - |
| 1787896929 | 19.44° C | 90% | 1014.3 hPa | 0 mm | - | - | - |
| 1787895130 | 19.44° C | 90% | 1014.3 hPa | 0 mm | - | - | - |
| 1787893329 | 18.89° C | 91% | 1014.5 hPa | 0 mm | - | - | - |
| 1787891530 | 18.89° C | 91% | 1014.3 hPa | 0 mm | - | - | - |
| 1787889731 | 18.89° C | 90% | 1013.5 hPa | 0 mm | - | - | - |
| 1787887929 | 19.44° C | 89% | 1013.6 hPa | 0 mm | - | - | - |
| 1787886129 | 19.44° C | 88% | 1014.4 hPa | 0 mm | - | - | - |
* Rain since midnight (hover to see other rain measurements)
** Current wind speed in m/s (hover to see current wind gust speed)